Terminal Aerodrome Forecast
Issued by NWS Mt. Holly, NJ

Home | Current Version | Previous Version | Text Only | Print | Product List | Glossary On
Versions: 1 2 3 4 5 6 7 8 9 10 11 12 13 14 15 16
000
FTUS41 KPHI 271746
TAFILG
TAF
KILG 271746Z 2718/2818 18010G20KT P6SM BKN035
      TEMPO 2722/2801 6SM TSRA OVC030CB
     FM280100 19009KT P6SM BKN120
     FM280900 20004KT 5SM BR BKN015
     FM281400 23008KT P6SM SCT015 BKN150=

USA.gov is the U.S. government's official web portal to all federal, state and local government web resources and services.